Janesville Atmospheric Data: 07/12/2019 Summary  Detailed Graphs  Station List

  Temperature     Wind Precipitation Visibility
Timestamp Air Wet
Bulb
Dew-
point
24-hr
Max
24-hr
Min
Relative
Humidity
Atmospheric
Pressure
Avg
Speed
Avg
Dir
Spot
Speed
Spot
Dir
Max
Speed
Max
Dir
  Rate Situation Start End 1 hr 3 hr 6 hr 12 hr 24 hr   Situation
Date Time °F °F °F °F °F % in Hg mph ° mph ° mph ° Y/N in/hr text Date Time Date Time in in in in in mi text
07/12/2019 12:13 AM 64.94 54.14 45.14 85.64 49.46 48.0 Not Reported 0.67 W 0.89 SW 4.92 SW No 0.000 No Precipitation 05/31/2019 11:06 PM 05/31/2019 11:11 PM 0.000 0.000 0.000 0.000 0.000 Not Reported Not Reported
07/12/2019 12:28 AM 62.42 52.88 44.78 85.64 49.46 52.0 Not Reported 2.24 SW 2.91 SW 4.03 SW No 0.000 No Precipitation 05/31/2019 11:06 PM 05/31/2019 11:11 PM 0.000 0.000 0.000 0.000 0.000 Not Reported Not Reported
07/12/2019 12:43 AM 61.34 52.52 44.96 85.64 49.46 54.0 Not Reported 2.91 SW 3.58 SW 4.25 SW No 0.000 No Precipitation 05/31/2019 11:06 PM 05/31/2019 11:11 PM 0.000 0.000 0.000 0.000 0.000 Not Reported Not Reported
07/12/2019 12:58 AM 60.80 52.16 44.78 85.64 49.46 55.0 Not Reported 3.58 W 3.80 W 4.70 SW No 0.000 No Precipitation 05/31/2019 11:06 PM 05/31/2019 11:11 PM 0.000 0.000 0.000 0.000 0.000 Not Reported Not Reported
07/12/2019 01:13 AM 60.08 51.98 44.96 88.88 50.90 57.0 Not Reported 1.79 S 2.91 SW 3.80 SW No 0.000 No Precipitation 05/31/2019 11:06 PM 05/31/2019 11:11 PM 0.000 0.000 0.000 0.000 0.000 Not Reported Not Reported
07/12/2019 01:28 AM 59.36 51.62 44.96 88.88 50.90 59.0 Not Reported 4.92 SW 5.14 SW 3.36 SW No 0.000 No Precipitation 05/31/2019 11:06 PM 05/31/2019 11:11 PM 0.000 0.000 0.000 0.000 0.000 Not Reported Not Reported
07/12/2019 01:43 AM 59.18 51.44 44.96 88.88 50.90 59.0 Not Reported 2.01 W 2.68 W 5.14 SW No 0.000 No Precipitation 05/31/2019 11:06 PM 05/31/2019 11:11 PM 0.000 0.000 0.000 0.000 0.000 Not Reported Not Reported
07/12/2019 01:58 AM 59.18 51.62 44.96 88.88 50.90 59.0 Not Reported 2.24 SW 2.68 SW 3.58 W No 0.000 No Precipitation 05/31/2019 11:06 PM 05/31/2019 11:11 PM 0.000 0.000 0.000 0.000 0.000 Not Reported Not Reported
07/12/2019 02:13 AM 58.46 51.26 45.14 88.88 50.90 61.0 Not Reported 3.80 W 2.91 SW 3.58 SW No 0.000 No Precipitation 05/31/2019 11:06 PM 05/31/2019 11:11 PM 0.000 0.000 0.000 0.000 0.000 Not Reported Not Reported
07/12/2019 02:28 AM 57.74 50.90 44.96 88.88 50.90 62.0 Not Reported 2.68 SW 2.91 SW 4.25 W No 0.000 No Precipitation 05/31/2019 11:06 PM 05/31/2019 11:11 PM 0.000 0.000 0.000 0.000 0.000 Not Reported Not Reported
07/12/2019 02:43 AM 57.74 50.90 44.96 88.88 50.90 62.0 Not Reported 3.36 W 4.47 W 3.58 NW No 0.000 No Precipitation 05/31/2019 11:06 PM 05/31/2019 11:11 PM 0.000 0.000 0.000 0.000 0.000 Not Reported Not Reported
07/12/2019 02:58 AM 57.20 50.72 44.96 88.88 50.90 63.0 Not Reported 2.91 W 2.68 W 4.92 W No 0.000 No Precipitation 05/31/2019 11:06 PM 05/31/2019 11:11 PM 0.000 0.000 0.000 0.000 0.000 Not Reported Not Reported
07/12/2019 03:13 AM 56.12 50.36 45.14 88.88 50.90 66.0 Not Reported 2.46 SW 3.13 W 3.58 W No 0.000 No Precipitation 05/31/2019 11:06 PM 05/31/2019 11:11 PM 0.000 0.000 0.000 0.000 0.000 Not Reported Not Reported
07/12/2019 03:28 AM 55.94 50.18 45.14 88.88 50.90 66.0 Not Reported 3.80 SW 4.70 SW 4.47 SW No 0.000 No Precipitation 05/31/2019 11:06 PM 05/31/2019 11:11 PM 0.000 0.000 0.000 0.000 0.000 Not Reported Not Reported
07/12/2019 03:43 AM 55.58 50.00 44.78 88.88 50.90 67.0 Not Reported 1.79 SW 2.01 S 4.25 SW No 0.000 No Precipitation 05/31/2019 11:06 PM 05/31/2019 11:11 PM 0.000 0.000 0.000 0.000 0.000 Not Reported Not Reported
07/12/2019 03:58 AM 55.58 49.82 44.60 88.88 50.90 66.0 Not Reported 1.12 SW 0.67 SW 3.36 SE No 0.000 No Precipitation 05/31/2019 11:06 PM 05/31/2019 11:11 PM 0.000 0.000 0.000 0.000 0.000 Not Reported Not Reported
07/12/2019 04:13 AM 54.50 49.28 44.60 88.88 50.90 69.0 Not Reported 2.01 W 1.12 W 3.36 W No 0.000 No Precipitation 05/31/2019 11:06 PM 05/31/2019 11:11 PM 0.000 0.000 0.000 0.000 0.000 Not Reported Not Reported
07/12/2019 04:28 AM 53.96 48.92 44.42 88.88 50.90 70.0 Not Reported 3.13 SW 3.58 SW 2.68 SW No 0.000 No Precipitation 05/31/2019 11:06 PM 05/31/2019 11:11 PM 0.000 0.000 0.000 0.000 0.000 Not Reported Not Reported
07/12/2019 04:43 AM 54.68 49.46 44.60 88.88 50.90 68.0 Not Reported 3.58 W 3.36 W 4.70 SW No 0.000 No Precipitation 05/31/2019 11:06 PM 05/31/2019 11:11 PM 0.000 0.000 0.000 0.000 0.000 Not Reported Not Reported
07/12/2019 04:58 AM 53.60 48.74 44.42 88.88 50.90 71.0 Not Reported 1.79 W 1.57 NW 4.03 W No 0.000 No Precipitation 05/31/2019 11:06 PM 05/31/2019 11:11 PM 0.000 0.000 0.000 0.000 0.000 Not Reported Not Reported
07/12/2019 05:13 AM 53.42 48.56 44.24 88.88 50.90 70.0 Not Reported 0.67 NW 1.12 W 2.01 N No 0.000 No Precipitation 05/31/2019 11:06 PM 05/31/2019 11:11 PM 0.000 0.000 0.000 0.000 0.000 Not Reported Not Reported
07/12/2019 05:29 AM 52.34 48.02 44.24 88.88 50.90 73.0 Not Reported 3.36 W 3.58 SW 1.79 W No 0.000 No Precipitation 05/31/2019 11:06 PM 05/31/2019 11:11 PM 0.000 0.000 0.000 0.000 0.000 Not Reported Not Reported
07/12/2019 05:45 AM 53.06 48.92 44.96 88.88 50.90 74.0 Not Reported 3.80 SW 4.03 W 5.14 SW No 0.000 No Precipitation 05/31/2019 11:06 PM 05/31/2019 11:11 PM 0.000 0.000 0.000 0.000 0.000 Not Reported Not Reported
07/12/2019 05:58 AM 52.52 48.02 43.88 88.88 50.90 72.0 Not Reported 2.24 W 2.01 W 4.25 SW No 0.000 No Precipitation 05/31/2019 11:06 PM 05/31/2019 11:11 PM 0.000 0.000 0.000 0.000 0.000 Not Reported Not Reported
07/12/2019 06:13 AM 52.34 48.20 44.24 88.88 50.90 73.0 Not Reported 2.24 W 3.13 W 2.24 SW No 0.000 No Precipitation 05/31/2019 11:06 PM 05/31/2019 11:11 PM 0.000 0.000 0.000 0.000 0.000 Not Reported Not Reported
07/12/2019 06:28 AM 51.80 48.02 44.42 88.88 50.90 75.0 Not Reported 3.58 SW 3.80 SW 3.80 SW No 0.000 No Precipitation 05/31/2019 11:06 PM 05/31/2019 11:11 PM 0.000 0.000 0.000 0.000 0.000 Not Reported Not Reported
07/12/2019 06:43 AM 53.42 48.74 44.60 88.88 50.90 71.0 Not Reported 1.57 NW 2.46 W 4.47 SW No 0.000 No Precipitation 05/31/2019 11:06 PM 05/31/2019 11:11 PM 0.000 0.000 0.000 0.000 0.000 Not Reported Not Reported
07/12/2019 07:01 AM 52.52 48.02 43.70 88.88 50.90 71.0 Not Reported 4.03 W 4.25 W 5.14 NW No 0.000 No Precipitation 05/31/2019 11:06 PM 05/31/2019 11:11 PM 0.000 0.000 0.000 0.000 0.000 Not Reported Not Reported
07/12/2019 07:13 AM 54.32 49.28 44.60 88.88 50.90 69.0 Not Reported 1.34 W 1.79 W 4.25 W No 0.000 No Precipitation 05/31/2019 11:06 PM 05/31/2019 11:11 PM 0.000 0.000 0.000 0.000 0.000 Not Reported Not Reported
07/12/2019 07:28 AM 55.22 50.18 45.86 88.88 50.90 70.0 Not Reported 4.03 SW 4.25 SW 3.36 SW No 0.000 No Precipitation 05/31/2019 11:06 PM 05/31/2019 11:11 PM 0.000 0.000 0.000 0.000 0.000 Not Reported Not Reported
07/12/2019 07:43 AM 59.00 52.52 47.12 88.88 50.90 64.0 Not Reported 2.01 W 2.24 W 3.58 SW No 0.000 No Precipitation 05/31/2019 11:06 PM 05/31/2019 11:11 PM 0.000 0.000 0.000 0.000 0.000 Not Reported Not Reported
07/12/2019 07:58 AM 62.06 54.32 48.20 88.88 50.90 60.0 Not Reported 0.89 E 0.89 E 2.24 W No 0.000 No Precipitation 05/31/2019 11:06 PM 05/31/2019 11:11 PM 0.000 0.000 0.000 0.000 0.000 Not Reported Not Reported
07/12/2019 08:13 AM 64.22 55.40 48.74 88.88 50.90 57.0 Not Reported 1.57 W 1.57 W 1.57 W No 0.000 No Precipitation 05/31/2019 11:06 PM 05/31/2019 11:11 PM 0.000 0.000 0.000 0.000 0.000 Not Reported Not Reported
07/12/2019 08:28 AM 67.64 57.38 49.82 88.88 50.90 52.0 Not Reported 0.00 N 0.00 N 1.79 W No 0.000 No Precipitation 05/31/2019 11:06 PM 05/31/2019 11:11 PM 0.000 0.000 0.000 0.000 0.000 Not Reported Not Reported
07/12/2019 08:43 AM 69.26 58.10 50.00 88.88 50.90 50.0 Not Reported 1.57 N 1.57 N 1.79 N No 0.000 No Precipitation 05/31/2019 11:06 PM 05/31/2019 11:11 PM 0.000 0.000 0.000 0.000 0.000 Not Reported Not Reported
07/12/2019 08:58 AM 70.52 56.30 44.78 88.88 50.90 39.0 Not Reported 0.00 SW 0.00 SE 2.01 N No 0.000 No Precipitation 05/31/2019 11:06 PM 05/31/2019 11:11 PM 0.000 0.000 0.000 0.000 0.000 Not Reported Not Reported
07/12/2019 09:13 AM 71.06 56.66 45.32 88.88 50.90 39.0 Not Reported 1.57 E 1.57 E 1.57 E No 0.000 No Precipitation 05/31/2019 11:06 PM 05/31/2019 11:11 PM 0.000 0.000 0.000 0.000 0.000 Not Reported Not Reported
07/12/2019 09:28 AM 72.68 57.56 45.68 88.88 50.90 37.0 Not Reported 1.12 NW 1.57 N 2.68 E No 0.000 No Precipitation 05/31/2019 11:06 PM 05/31/2019 11:11 PM 0.000 0.000 0.000 0.000 0.000 Not Reported Not Reported
07/12/2019 09:43 AM 73.22 57.38 44.96 88.88 50.90 36.0 Not Reported 3.13 NE 1.79 NE 4.47 E No 0.000 No Precipitation 05/31/2019 11:06 PM 05/31/2019 11:11 PM 0.000 0.000 0.000 0.000 0.000 Not Reported Not Reported
07/12/2019 09:58 AM 73.76 57.74 45.14 88.88 50.90 35.0 Not Reported 3.13 SE 1.57 E 5.14 E No 0.000 No Precipitation 05/31/2019 11:06 PM 05/31/2019 11:11 PM 0.000 0.000 0.000 0.000 0.000 Not Reported Not Reported
07/12/2019 10:13 AM 74.30 58.10 45.50 88.88 50.90 35.0 Not Reported 2.91 E 3.13 E 4.25 SE No 0.000 No Precipitation 05/31/2019 11:06 PM 05/31/2019 11:11 PM 0.000 0.000 0.000 0.000 0.000 Not Reported Not Reported
07/12/2019 10:28 AM 75.20 58.28 45.32 88.88 50.90 34.0 Not Reported 2.01 E 4.25 SE 3.58 E No 0.000 No Precipitation 05/31/2019 11:06 PM 05/31/2019 11:11 PM 0.000 0.000 0.000 0.000 0.000 Not Reported Not Reported
07/12/2019 10:43 AM 75.74 57.56 42.98 88.88 50.90 30.0 Not Reported 2.46 NE 1.12 W 4.47 NE No 0.000 No Precipitation 05/31/2019 11:06 PM 05/31/2019 11:11 PM 0.000 0.000 0.000 0.000 0.000 Not Reported Not Reported
07/12/2019 10:58 AM 76.82 57.92 42.80 88.88 50.90 29.0 Not Reported 1.57 E 2.24 E 5.14 NE No 0.000 No Precipitation 05/31/2019 11:06 PM 05/31/2019 11:11 PM 0.000 0.000 0.000 0.000 0.000 Not Reported Not Reported
07/12/2019 11:13 AM 77.90 58.64 43.52 88.88 50.90 29.0 Not Reported 1.79 SE 4.47 E 4.47 E No 0.000 No Precipitation 05/31/2019 11:06 PM 05/31/2019 11:11 PM 0.000 0.000 0.000 0.000 0.000 Not Reported Not Reported
07/12/2019 11:28 AM 77.72 58.46 42.98 88.88 50.90 28.0 Not Reported 1.79 E 4.92 SE 5.14 E No 0.000 No Precipitation 05/31/2019 11:06 PM 05/31/2019 11:11 PM 0.000 0.000 0.000 0.000 0.000 Not Reported Not Reported
07/12/2019 11:43 AM 79.70 59.36 43.34 88.88 50.90 27.0 Not Reported 1.79 NE 0.67 S 4.92 SE No 0.000 No Precipitation 05/31/2019 11:06 PM 05/31/2019 11:11 PM 0.000 0.000 0.000 0.000 0.000 Not Reported Not Reported
07/12/2019 11:58 AM 80.24 59.72 44.06 88.88 50.90 27.0 Not Reported 1.34 SE 5.14 SE 5.37 NE No 0.000 No Precipitation 05/31/2019 11:06 PM 05/31/2019 11:11 PM 0.000 0.000 0.000 0.000 0.000 Not Reported Not Reported
07/12/2019 12:13 PM 80.24 59.90 44.24 88.88 50.90 28.0 Not Reported 3.80 NW 7.16 N 6.71 NW No 0.000 No Precipitation 05/31/2019 11:06 PM 05/31/2019 11:11 PM 0.000 0.000 0.000 0.000 0.000 Not Reported Not Reported
07/12/2019 12:28 PM 82.94 60.98 44.42 88.88 50.90 25.0 Not Reported 2.91 NE 0.67 N 7.16 N No 0.000 No Precipitation 05/31/2019 11:06 PM 05/31/2019 11:11 PM 0.000 0.000 0.000 0.000 0.000 Not Reported Not Reported
07/12/2019 12:43 PM 82.94 60.44 43.16 88.88 50.90 24.0 Not Reported 3.58 NW 2.68 W 4.92 NW No 0.000 No Precipitation 05/31/2019 11:06 PM 05/31/2019 11:11 PM 0.000 0.000 0.000 0.000 0.000 Not Reported Not Reported
07/12/2019 12:58 PM 84.56 61.16 43.52 88.88 50.90 23.0 Not Reported 0.67 NW 3.36 N 4.25 NW No 0.000 No Precipitation 05/31/2019 11:06 PM 05/31/2019 11:11 PM 0.000 0.000 0.000 0.000 0.000 Not Reported Not Reported
07/12/2019 01:13 PM 85.28 61.52 43.52 88.88 50.90 23.0 Not Reported 3.36 NW 3.13 NW 4.25 NW No 0.000 No Precipitation 05/31/2019 11:06 PM 05/31/2019 11:11 PM 0.000 0.000 0.000 0.000 0.000 Not Reported Not Reported
07/12/2019 01:28 PM 86.54 63.14 46.58 88.88 50.90 25.0 Not Reported 2.24 NE 5.14 E 4.92 NW No 0.000 No Precipitation 05/31/2019 11:06 PM 05/31/2019 11:11 PM 0.000 0.000 0.000 0.000 0.000 Not Reported Not Reported
07/12/2019 01:43 PM 86.18 63.32 47.84 88.88 50.90 26.0 Not Reported 7.61 SE 9.62 SE 8.95 E No 0.000 No Precipitation 05/31/2019 11:06 PM 05/31/2019 11:11 PM 0.000 0.000 0.000 0.000 0.000 Not Reported Not Reported
07/12/2019 01:58 PM 84.92 62.42 46.22 88.88 50.90 26.0 Not Reported 8.05 E 7.83 E 10.07 SE No 0.000 No Precipitation 05/31/2019 11:06 PM 05/31/2019 11:11 PM 0.000 0.000 0.000 0.000 0.000 Not Reported Not Reported
07/12/2019 02:13 PM 85.82 62.78 46.58 88.88 50.90 25.0 Not Reported 6.49 SE 7.83 E 8.72 E No 0.000 No Precipitation 05/31/2019 11:06 PM 05/31/2019 11:11 PM 0.000 0.000 0.000 0.000 0.000 Not Reported Not Reported
07/12/2019 02:28 PM 86.54 61.16 41.00 88.88 50.90 20.0 Not Reported 5.82 E 6.71 E 11.41 E No 0.000 No Precipitation 05/31/2019 11:06 PM 05/31/2019 11:11 PM 0.000 0.000 0.000 0.000 0.000 Not Reported Not Reported
07/12/2019 02:43 PM 87.08 61.70 42.44 88.88 50.90 20.0 Not Reported 6.93 E 7.16 E 9.62 E No 0.000 No Precipitation 05/31/2019 11:06 PM 05/31/2019 11:11 PM 0.000 0.000 0.000 0.000 0.000 Not Reported Not Reported
07/12/2019 02:58 PM 88.88 63.14 44.42 88.88 50.90 21.0 Not Reported 4.47 SE 6.93 SE 9.62 E No 0.000 No Precipitation 05/31/2019 11:06 PM 05/31/2019 11:11 PM 0.000 0.000 0.000 0.000 0.000 Not Reported Not Reported
07/12/2019 03:13 PM 90.86 60.62 34.34 88.88 50.90 13.0 Not Reported 5.59 N 14.09 NW 13.20 NW No 0.000 No Precipitation 05/31/2019 11:06 PM 05/31/2019 11:11 PM 0.000 0.000 0.000 0.000 0.000 Not Reported Not Reported
07/12/2019 03:28 PM 91.04 60.80 34.70 88.88 50.90 13.0 Not Reported 5.59 N 6.93 N 14.09 NW No 0.000 No Precipitation 05/31/2019 11:06 PM 05/31/2019 11:11 PM 0.000 0.000 0.000 0.000 0.000 Not Reported Not Reported
07/12/2019 03:43 PM 91.40 60.98 34.52 88.88 50.90 13.0 Not Reported 4.92 NW 14.54 W 17.00 W No 0.000 No Precipitation 05/31/2019 11:06 PM 05/31/2019 11:11 PM 0.000 0.000 0.000 0.000 0.000 Not Reported Not Reported
07/12/2019 03:58 PM 90.14 60.26 33.62 88.88 50.90 13.0 Not Reported 6.26 W 5.14 NW 14.54 W No 0.000 No Precipitation 05/31/2019 11:06 PM 05/31/2019 11:11 PM 0.000 0.000 0.000 0.000 0.000 Not Reported Not Reported
07/12/2019 04:13 PM 90.50 60.62 34.52 88.88 50.90 13.0 Not Reported 8.72 SW 9.40 W 19.91 W No 0.000 No Precipitation 05/31/2019 11:06 PM 05/31/2019 11:11 PM 0.000 0.000 0.000 0.000 0.000 Not Reported Not Reported
07/12/2019 04:28 PM 89.96 60.62 35.06 88.88 50.90 14.0 Not Reported 9.62 W 6.04 W 18.34 W No 0.000 No Precipitation 05/31/2019 11:06 PM 05/31/2019 11:11 PM 0.000 0.000 0.000 0.000 0.000 Not Reported Not Reported
07/12/2019 04:43 PM 90.68 60.80 35.06 88.88 50.90 14.0 Not Reported 6.04 W 9.84 W 19.46 W No 0.000 No Precipitation 05/31/2019 11:06 PM 05/31/2019 11:11 PM 0.000 0.000 0.000 0.000 0.000 Not Reported Not Reported
07/12/2019 04:58 PM 89.96 60.62 35.60 88.88 50.90 14.0 Not Reported 11.41 W 9.62 NW 15.21 NW No 0.000 No Precipitation 05/31/2019 11:06 PM 05/31/2019 11:11 PM 0.000 0.000 0.000 0.000 0.000 Not Reported Not Reported
07/12/2019 05:13 PM 89.78 61.16 37.58 88.88 50.90 15.0 Not Reported 8.05 W 13.65 W 14.99 NW No 0.000 No Precipitation 05/31/2019 11:06 PM 05/31/2019 11:11 PM 0.000 0.000 0.000 0.000 0.000 Not Reported Not Reported
07/12/2019 05:28 PM 89.96 60.98 36.50 88.88 50.90 15.0 Not Reported 12.30 W 7.83 NW 16.55 W No 0.000 No Precipitation 05/31/2019 11:06 PM 05/31/2019 11:11 PM 0.000 0.000 0.000 0.000 0.000 Not Reported Not Reported
07/12/2019 05:44 PM 90.32 60.98 37.04 88.88 50.90 14.0 Not Reported 5.14 W 15.21 W 16.33 NW No 0.000 No Precipitation 05/31/2019 11:06 PM 05/31/2019 11:11 PM 0.000 0.000 0.000 0.000 0.000 Not Reported Not Reported
07/12/2019 05:58 PM 89.78 60.08 34.16 88.88 50.90 14.0 Not Reported 10.74 W 6.93 W 15.43 W No 0.000 No Precipitation 05/31/2019 11:06 PM 05/31/2019 11:11 PM 0.000 0.000 0.000 0.000 0.000 Not Reported Not Reported
07/12/2019 06:13 PM 89.78 60.26 34.34 88.88 50.90 13.0 Not Reported 7.61 SW 8.50 W 16.55 W No 0.000 No Precipitation 05/31/2019 11:06 PM 05/31/2019 11:11 PM 0.000 0.000 0.000 0.000 0.000 Not Reported Not Reported
07/12/2019 06:28 PM 89.24 59.72 33.08 88.88 50.90 13.0 Not Reported 15.43 W 12.75 W 14.32 SW No 0.000 No Precipitation 05/31/2019 11:06 PM 05/31/2019 11:11 PM 0.000 0.000 0.000 0.000 0.000 Not Reported Not Reported
07/12/2019 06:43 PM 90.32 60.62 35.06 88.88 50.90 14.0 Not Reported 6.71 W 6.93 W 14.32 SW No 0.000 No Precipitation 05/31/2019 11:06 PM 05/31/2019 11:11 PM 0.000 0.000 0.000 0.000 0.000 Not Reported Not Reported
07/12/2019 06:58 PM 89.06 60.08 34.88 88.88 50.90 14.0 Not Reported 7.38 W 5.59 NW 14.32 SW No 0.000 No Precipitation 05/31/2019 11:06 PM 05/31/2019 11:11 PM 0.000 0.000 0.000 0.000 0.000 Not Reported Not Reported
07/12/2019 07:13 PM 87.98 60.08 36.32 88.88 50.90 16.0 Not Reported 9.62 W 7.38 SW 13.20 W No 0.000 No Precipitation 05/31/2019 11:06 PM 05/31/2019 11:11 PM 0.000 0.000 0.000 0.000 0.000 Not Reported Not Reported
07/12/2019 07:28 PM 87.80 59.90 35.78 88.88 50.90 15.0 Not Reported 8.05 W 7.61 W 14.99 W No 0.000 No Precipitation 05/31/2019 11:06 PM 05/31/2019 11:11 PM 0.000 0.000 0.000 0.000 0.000 Not Reported Not Reported
07/12/2019 07:43 PM 87.80 59.54 34.34 88.88 50.90 14.0 Not Reported 6.71 W 4.25 W 12.53 W No 0.000 No Precipitation 05/31/2019 11:06 PM 05/31/2019 11:11 PM 0.000 0.000 0.000 0.000 0.000 Not Reported Not Reported
07/12/2019 07:58 PM 88.70 60.44 36.14 88.88 50.90 15.0 Not Reported 5.37 NW 7.16 NW 8.72 W No 0.000 No Precipitation 05/31/2019 11:06 PM 05/31/2019 11:11 PM 0.000 0.000 0.000 0.000 0.000 Not Reported Not Reported
07/12/2019 08:13 PM 86.90 58.82 33.08 88.88 50.90 14.0 Not Reported 6.04 NW 10.07 NW 11.18 NW No 0.000 No Precipitation 05/31/2019 11:06 PM 05/31/2019 11:11 PM 0.000 0.000 0.000 0.000 0.000 Not Reported Not Reported
07/12/2019 08:28 PM 86.72 58.82 32.90 88.88 50.90 14.0 Not Reported 3.80 W 5.59 W 10.07 NW No 0.000 No Precipitation 05/31/2019 11:06 PM 05/31/2019 11:11 PM 0.000 0.000 0.000 0.000 0.000 Not Reported Not Reported
07/12/2019 08:43 PM 86.00 58.46 33.08 88.88 50.90 15.0 Not Reported 3.58 NW 7.16 W 15.88 W No 0.000 No Precipitation 05/31/2019 11:06 PM 05/31/2019 11:11 PM 0.000 0.000 0.000 0.000 0.000 Not Reported Not Reported
07/12/2019 08:58 PM 83.48 58.10 35.42 88.88 50.90 17.0 Not Reported 6.71 W 3.80 W 10.96 NW No 0.000 No Precipitation 05/31/2019 11:06 PM 05/31/2019 11:11 PM 0.000 0.000 0.000 0.000 0.000 Not Reported Not Reported
07/12/2019 09:13 PM 82.40 58.28 37.04 88.88 50.90 19.0 Not Reported 6.04 W 3.58 W 6.26 NW No 0.000 No Precipitation 05/31/2019 11:06 PM 05/31/2019 11:11 PM 0.000 0.000 0.000 0.000 0.000 Not Reported Not Reported
07/12/2019 09:28 PM 80.78 58.10 38.84 88.88 50.90 22.0 Not Reported 4.92 W 5.59 W 7.38 W No 0.000 No Precipitation 05/31/2019 11:06 PM 05/31/2019 11:11 PM 0.000 0.000 0.000 0.000 0.000 Not Reported Not Reported
07/12/2019 09:43 PM 77.90 57.02 38.48 88.88 50.90 24.0 Not Reported 8.95 SW 9.84 W 7.61 W No 0.000 No Precipitation 05/31/2019 11:06 PM 05/31/2019 11:11 PM 0.000 0.000 0.000 0.000 0.000 Not Reported Not Reported
07/12/2019 09:58 PM 78.98 57.74 39.38 88.88 50.90 24.0 Not Reported 8.50 W 7.38 W 10.51 W No 0.000 No Precipitation 05/31/2019 11:06 PM 05/31/2019 11:11 PM 0.000 0.000 0.000 0.000 0.000 Not Reported Not Reported
07/12/2019 10:13 PM 78.26 57.20 39.02 88.88 50.90 24.0 Not Reported 9.17 SW 7.38 SW 9.17 W No 0.000 No Precipitation 05/31/2019 11:06 PM 05/31/2019 11:11 PM 0.000 0.000 0.000 0.000 0.000 Not Reported Not Reported
07/12/2019 10:28 PM 76.82 56.84 39.56 88.88 50.90 26.0 Not Reported 5.37 NW 6.26 NW 10.07 SW No 0.000 No Precipitation 05/31/2019 11:06 PM 05/31/2019 11:11 PM 0.000 0.000 0.000 0.000 0.000 Not Reported Not Reported
07/12/2019 10:43 PM 74.30 56.12 40.64 88.88 50.90 29.0 Not Reported 4.92 NW 3.13 W 8.05 NW No 0.000 No Precipitation 05/31/2019 11:06 PM 05/31/2019 11:11 PM 0.000 0.000 0.000 0.000 0.000 Not Reported Not Reported
07/12/2019 10:58 PM 77.18 57.56 41.36 88.88 50.90 27.0 Not Reported 9.84 W 11.41 SW 10.96 NW No 0.000 No Precipitation 05/31/2019 11:06 PM 05/31/2019 11:11 PM 0.000 0.000 0.000 0.000 0.000 Not Reported Not Reported
07/12/2019 11:13 PM 75.92 57.02 41.00 88.88 50.90 28.0 Not Reported 6.04 W 6.26 NW 13.65 W No 0.000 No Precipitation 05/31/2019 11:06 PM 05/31/2019 11:11 PM 0.000 0.000 0.000 0.000 0.000 Not Reported Not Reported
07/12/2019 11:28 PM 71.96 56.12 43.16 88.88 50.90 35.0 Not Reported 6.71 N 7.38 N 6.49 W No 0.000 No Precipitation 05/31/2019 11:06 PM 05/31/2019 11:11 PM 0.000 0.000 0.000 0.000 0.000 Not Reported Not Reported
07/12/2019 11:43 PM 71.42 56.12 43.88 88.88 50.90 37.0 Not Reported 8.28 NW 9.40 NW 10.07 NW No 0.000 No Precipitation 05/31/2019 11:06 PM 05/31/2019 11:11 PM 0.000 0.000 0.000 0.000 0.000 Not Reported Not Reported
07/12/2019 11:58 PM 75.20 57.74 43.70 88.88 50.90 32.0 Not Reported 7.16 W 4.92 SW 9.40 NW No 0.000 No Precipitation 05/31/2019 11:06 PM 05/31/2019 11:11 PM 0.000 0.000 0.000 0.000 0.000 Not Reported Not Reported